createdAt,value
2018-07-25T00:00:23.668Z,25.30
2018-07-25T00:02:52.659Z,24.95
2018-07-25T00:05:22.077Z,24.67
2018-07-25T00:07:51.194Z,24.92
2018-07-25T00:10:20.303Z,22.85
2018-07-25T00:12:50.186Z,23.27
2018-07-25T00:15:18.990Z,23.57
2018-07-25T00:17:47.867Z,24.20
2018-07-25T00:20:17.138Z,23.05
2018-07-25T00:22:46.767Z,22.42
2018-07-25T00:25:16.093Z,21.65
2018-07-25T00:27:44.952Z,22.73
2018-07-25T00:30:13.731Z,22.05
2018-07-25T00:32:42.759Z,22.87
2018-07-25T00:35:11.528Z,24.55
2018-07-25T00:37:40.436Z,24.12
2018-07-25T00:40:09.582Z,23.35
2018-07-25T00:42:38.727Z,23.87
2018-07-25T00:45:08.334Z,23.52
2018-07-25T00:47:37.498Z,24.87
2018-07-25T00:50:06.606Z,26.02
2018-07-25T00:52:36.008Z,24.07
2018-07-25T00:55:05.319Z,23.90
2018-07-25T00:57:34.159Z,25.68
2018-07-25T01:00:03.254Z,22.58
2018-07-25T01:02:33.574Z,25.85
2018-07-25T01:05:02.206Z,22.87
2018-07-25T01:07:31.694Z,19.48
2018-07-25T01:10:01.032Z,23.98
2018-07-25T01:12:30.132Z,19.65
2018-07-25T01:14:59.328Z,18.45
2018-07-25T01:17:28.787Z,19.55
2018-07-25T01:19:57.792Z,18.90
2018-07-25T01:22:26.666Z,18.12
2018-07-25T01:24:55.847Z,18.10
2018-07-25T01:27:24.696Z,18.52
2018-07-25T01:29:54.020Z,18.35
2018-07-25T01:32:23.231Z,17.23
2018-07-25T01:34:53.567Z,17.75
2018-07-25T01:37:22.187Z,16.57
2018-07-25T01:39:51.415Z,17.07
2018-07-25T01:42:20.203Z,15.90
2018-07-25T01:44:49.820Z,16.55
2018-07-25T01:47:19.090Z,15.65
2018-07-25T01:49:47.935Z,18.67
2018-07-25T01:52:16.905Z,17.75
2018-07-25T01:54:47.408Z,23.05
2018-07-25T01:57:16.503Z,15.78
2018-07-25T01:59:45.462Z,17.12
2018-07-25T02:02:14.934Z,16.73
2018-07-25T02:04:43.936Z,16.17
2018-07-25T02:07:13.019Z,16.30
2018-07-25T02:09:43.270Z,16.82
2018-07-25T02:12:12.259Z,16.80
2018-07-25T02:14:41.018Z,16.85
2018-07-25T02:17:10.246Z,15.00
2018-07-25T02:19:39.437Z,14.95
2018-07-25T02:22:08.428Z,15.83
2018-07-25T02:24:37.214Z,16.05
2018-07-25T02:27:06.965Z,19.50
2018-07-25T02:29:36.442Z,14.78
2018-07-25T02:32:05.580Z,17.25
2018-07-25T02:34:34.604Z,14.53
2018-07-25T02:37:03.653Z,14.63
2018-07-25T02:39:32.619Z,14.78
2018-07-25T02:42:01.611Z,13.98
2018-07-25T02:44:31.103Z,21.10
2018-07-25T02:46:59.913Z,13.08
2018-07-25T02:49:29.094Z,13.05
2018-07-25T02:51:58.223Z,12.65
2018-07-25T02:54:27.199Z,12.37
2018-07-25T02:56:56.113Z,11.85
2018-07-25T02:59:25.323Z,14.00
2018-07-25T03:01:54.128Z,12.43
2018-07-25T03:04:22.990Z,11.20
2018-07-25T03:06:52.205Z,12.18
2018-07-25T03:09:21.263Z,11.25
2018-07-25T03:11:50.434Z,12.47
2018-07-25T03:14:19.757Z,17.52
2018-07-25T03:16:48.839Z,11.38
2018-07-25T03:19:17.503Z,11.57
2018-07-25T03:21:46.878Z,13.28
2018-07-25T03:24:15.743Z,10.20
2018-07-25T03:26:44.479Z,13.60
2018-07-25T03:29:13.310Z,10.93
2018-07-25T03:31:42.033Z,15.83
2018-07-25T03:34:11.076Z,15.53
2018-07-25T03:36:39.951Z,12.23
2018-07-25T03:39:09.135Z,18.05
2018-07-25T03:41:38.430Z,10.90
2018-07-25T03:44:07.360Z,11.55
2018-07-25T03:46:36.111Z,10.50
2018-07-25T03:49:06.029Z,11.57
2018-07-25T03:51:35.451Z,10.32
2018-07-25T03:54:04.348Z,20.55
2018-07-25T03:56:34.187Z,13.83
2018-07-25T03:59:03.059Z,12.75
2018-07-25T04:01:32.007Z,14.83
2018-07-25T04:04:01.265Z,15.05
2018-07-25T04:06:30.027Z,17.02
2018-07-25T04:08:58.926Z,17.30
2018-07-25T04:11:27.630Z,15.68
2018-07-25T04:13:56.490Z,14.73
2018-07-25T04:16:25.295Z,11.28
2018-07-25T04:18:54.140Z,18.05
2018-07-25T04:21:23.289Z,14.25
2018-07-25T04:23:52.774Z,10.75
2018-07-25T04:26:21.927Z,11.68
2018-07-25T04:28:51.051Z,15.03
2018-07-25T04:31:20.294Z,11.93
2018-07-25T04:33:51.007Z,11.33
2018-07-25T04:36:19.912Z,16.52
2018-07-25T04:38:48.699Z,18.05
2018-07-25T04:41:17.928Z,9.73
2018-07-25T04:43:47.031Z,13.75
2018-07-25T04:46:16.174Z,17.12
2018-07-25T04:48:45.388Z,23.80
2018-07-25T04:51:14.181Z,22.20
2018-07-25T04:53:43.288Z,9.08
2018-07-25T04:56:12.960Z,14.00
2018-07-25T04:58:41.785Z,13.55
2018-07-25T05:01:10.941Z,12.00
2018-07-25T05:03:40.991Z,10.65
2018-07-25T05:06:10.104Z,14.83
2018-07-25T05:08:39.066Z,10.32
2018-07-25T05:11:08.505Z,12.68
2018-07-25T05:13:37.464Z,11.70
2018-07-25T05:16:07.312Z,12.45
2018-07-25T05:18:36.728Z,19.62
2018-07-25T05:21:05.791Z,15.35
2018-07-25T05:23:34.713Z,16.62
2018-07-25T05:26:04.066Z,18.62
2018-07-25T05:28:32.940Z,15.38
2018-07-25T05:31:01.878Z,14.85
2018-07-25T05:33:31.397Z,12.47
2018-07-25T05:36:00.389Z,13.15
2018-07-25T05:38:29.076Z,9.68
2018-07-25T05:40:58.574Z,8.30
2018-07-25T05:43:27.765Z,8.28
2018-07-25T05:45:56.971Z,9.33
2018-07-25T05:48:26.271Z,9.08
2018-07-25T05:50:55.181Z,10.80
2018-07-25T05:53:24.052Z,7.85
2018-07-25T05:55:53.075Z,8.73
2018-07-25T05:58:22.227Z,10.00
2018-07-25T06:00:51.436Z,9.40
2018-07-25T06:03:20.436Z,10.98
2018-07-25T06:05:49.572Z,12.23
2018-07-25T06:08:19.091Z,16.52
2018-07-25T06:10:48.422Z,12.23
2018-07-25T06:13:17.516Z,12.37
2018-07-25T06:15:46.527Z,15.93
2018-07-25T06:18:15.843Z,12.33
2018-07-25T06:20:45.949Z,11.90
2018-07-25T06:23:15.241Z,12.63
2018-07-25T06:25:44.342Z,13.93
2018-07-25T06:28:13.553Z,17.67
2018-07-25T06:30:42.442Z,19.15
2018-07-25T06:33:11.438Z,17.67
2018-07-25T06:35:40.433Z,14.00
2018-07-25T06:38:09.639Z,18.57
2018-07-25T06:40:38.728Z,16.30
2018-07-25T06:43:07.724Z,17.50
2018-07-25T06:45:37.158Z,18.82
2018-07-25T06:48:06.947Z,19.40
2018-07-25T06:50:36.208Z,14.80
2018-07-25T06:53:05.326Z,16.82
2018-07-25T06:55:34.141Z,16.12
2018-07-25T06:58:03.822Z,15.03
2018-07-25T07:00:33.194Z,19.60
2018-07-25T07:03:02.255Z,27.00
2018-07-25T07:05:31.160Z,29.27
2018-07-25T07:08:00.611Z,22.67
2018-07-25T07:10:29.429Z,20.25
2018-07-25T07:12:58.617Z,17.67
2018-07-25T07:15:27.987Z,15.43
2018-07-25T07:17:57.246Z,13.65
2018-07-25T07:20:26.362Z,11.70
2018-07-25T07:22:55.815Z,13.55
2018-07-25T07:25:24.584Z,9.88
2018-07-25T07:27:53.576Z,14.70
2018-07-25T07:30:23.158Z,11.25
2018-07-25T07:32:52.573Z,10.85
2018-07-25T07:35:21.760Z,14.25
2018-07-25T07:37:50.993Z,15.58
2018-07-25T07:40:22.025Z,10.68
2018-07-25T07:42:51.630Z,10.78
2018-07-25T07:45:20.947Z,10.85
2018-07-25T07:47:50.124Z,9.83
2018-07-25T07:50:19.727Z,8.93
2018-07-25T07:52:48.721Z,9.80
2018-07-25T07:55:18.524Z,8.90
2018-07-25T07:57:47.480Z,9.10
2018-07-25T08:00:17.397Z,9.03
2018-07-25T08:02:47.559Z,9.28
2018-07-25T08:05:17.604Z,8.68
2018-07-25T08:07:46.770Z,8.33
2018-07-25T08:10:15.774Z,9.18
2018-07-25T08:12:44.898Z,7.97
2018-07-25T08:15:13.978Z,8.18
2018-07-25T08:17:42.974Z,8.40
2018-07-25T08:20:12.424Z,8.93
2018-07-25T08:22:41.908Z,8.63
2018-07-25T08:25:10.959Z,8.73
2018-07-25T08:27:40.074Z,9.48
2018-07-25T08:30:09.017Z,8.30
2018-07-25T08:32:38.090Z,8.35
2018-07-25T08:35:07.022Z,8.13
2018-07-25T08:37:36.456Z,8.05
2018-07-25T08:40:06.582Z,8.70
2018-07-25T08:42:35.874Z,8.38
2018-07-25T08:45:06.312Z,8.13
2018-07-25T08:47:35.180Z,12.88
2018-07-25T08:50:05.394Z,9.45
2018-07-25T08:52:34.417Z,8.55
2018-07-25T08:55:03.388Z,9.58
2018-07-25T08:57:32.944Z,8.18
2018-07-25T09:00:02.091Z,9.53
2018-07-25T09:02:31.500Z,9.28
2018-07-25T09:05:00.938Z,9.38
2018-07-25T09:07:29.856Z,10.70
2018-07-25T09:09:59.104Z,10.05
2018-07-25T09:12:28.275Z,10.50
2018-07-25T09:14:56.943Z,12.70
2018-07-25T09:17:25.786Z,10.23
2018-07-25T09:19:55.160Z,13.28
2018-07-25T09:22:25.102Z,10.45
2018-07-25T09:24:54.207Z,14.60
2018-07-25T09:27:23.939Z,13.25
2018-07-25T09:29:52.797Z,12.85
2018-07-25T09:32:22.207Z,12.15
2018-07-25T09:34:52.040Z,12.93
2018-07-25T09:37:21.481Z,13.43
2018-07-25T09:39:55.370Z,14.33
2018-07-25T09:42:26.260Z,20.45
2018-07-25T09:44:56.134Z,13.10
2018-07-25T09:47:25.296Z,14.05
2018-07-25T09:49:54.276Z,15.03
2018-07-25T09:52:23.886Z,16.23
2018-07-25T09:54:52.621Z,15.95
2018-07-25T09:57:21.678Z,14.43
2018-07-25T09:59:50.827Z,15.10
2018-07-25T10:02:19.688Z,15.10
2018-07-25T10:04:48.644Z,15.43
2018-07-25T10:07:18.142Z,15.30
2018-07-25T10:09:46.843Z,13.68
2018-07-25T10:12:15.769Z,15.48
2018-07-25T10:14:45.167Z,13.48
2018-07-25T10:17:14.658Z,16.07
2018-07-25T10:19:43.358Z,14.63
2018-07-25T10:22:12.699Z,15.25
2018-07-25T10:24:41.807Z,14.65
2018-07-25T10:27:10.835Z,13.58
2018-07-25T10:29:39.991Z,14.50
2018-07-25T10:32:09.156Z,14.85
2018-07-25T10:34:38.419Z,13.43
2018-07-25T10:37:07.431Z,15.05
2018-07-25T10:39:36.306Z,14.10
2018-07-25T10:42:05.934Z,14.50
2018-07-25T10:44:35.136Z,14.55
2018-07-25T10:47:04.210Z,15.32
2018-07-25T10:49:33.847Z,14.60
2018-07-25T10:52:02.906Z,13.48
2018-07-25T10:54:32.360Z,13.43
2018-07-25T10:57:01.337Z,15.10
2018-07-25T10:59:30.612Z,12.13
2018-07-25T11:01:59.740Z,12.82
2018-07-25T11:04:28.924Z,4.60
2018-07-25T11:06:58.142Z,5.87
2018-07-25T11:09:27.181Z,3.95
2018-07-25T11:11:56.333Z,3.95
2018-07-25T11:14:25.719Z,3.83
2018-07-25T11:16:55.945Z,3.67
2018-07-25T11:19:25.357Z,6.22
2018-07-25T11:21:54.272Z,3.55
2018-07-25T11:24:23.212Z,3.42
2018-07-25T11:26:52.124Z,7.87
2018-07-25T11:29:21.326Z,3.95
2018-07-25T11:31:51.007Z,7.22
2018-07-25T11:34:19.947Z,4.22
2018-07-25T11:36:48.895Z,5.87
2018-07-25T11:39:18.105Z,8.48
2018-07-25T11:41:47.023Z,8.68
2018-07-25T11:44:16.436Z,6.50
2018-07-25T11:46:46.126Z,6.47
2018-07-25T11:49:15.207Z,6.67
2018-07-25T11:51:44.477Z,6.97
2018-07-25T11:54:13.425Z,8.40
2018-07-25T11:56:42.330Z,11.63
2018-07-25T11:59:11.543Z,9.43
2018-07-25T12:01:40.708Z,9.65
2018-07-25T12:04:09.715Z,10.98
2018-07-25T12:06:39.343Z,8.70
2018-07-25T12:09:09.938Z,9.75
2018-07-25T12:11:46.550Z,11.35
2018-07-25T12:14:17.046Z,11.70
2018-07-25T12:16:47.614Z,10.18
2018-07-25T12:19:17.308Z,12.03
2018-07-25T12:21:46.979Z,9.58
2018-07-25T12:24:16.172Z,8.88
2018-07-25T12:26:45.237Z,8.58
2018-07-25T12:29:14.302Z,7.50
2018-07-25T12:31:43.615Z,7.55
2018-07-25T12:34:12.338Z,7.03
2018-07-25T12:36:41.402Z,6.60
2018-07-25T12:39:11.270Z,6.87
2018-07-25T12:41:40.464Z,6.00
2018-07-25T12:44:10.301Z,8.50
2018-07-25T12:46:39.312Z,7.28
2018-07-25T12:49:08.774Z,6.83
2018-07-25T12:51:37.683Z,6.72
2018-07-25T12:54:06.990Z,6.42
2018-07-25T12:56:36.006Z,6.05
2018-07-25T12:59:05.107Z,6.53
2018-07-25T13:01:34.391Z,4.35
2018-07-25T13:04:03.593Z,3.37
2018-07-25T13:06:32.596Z,1.90
2018-07-25T13:09:01.981Z,2.83
2018-07-25T13:11:31.489Z,3.00
2018-07-25T13:14:01.124Z,2.90
2018-07-25T13:16:30.305Z,3.33
2018-07-25T13:18:59.218Z,3.42
2018-07-25T13:21:28.186Z,4.40
2018-07-25T13:23:57.480Z,3.47
2018-07-25T13:26:26.348Z,3.65
2018-07-25T13:28:55.936Z,3.77
2018-07-25T13:31:25.474Z,3.98
2018-07-25T13:33:54.406Z,4.15
2018-07-25T13:36:23.571Z,4.72
2018-07-25T13:38:52.902Z,5.45
2018-07-25T13:41:22.094Z,7.22
2018-07-25T13:43:51.197Z,4.17
2018-07-25T13:46:21.218Z,6.80
2018-07-25T13:48:50.024Z,4.70
2018-07-25T13:51:19.004Z,5.47
2018-07-25T13:53:48.662Z,5.45
2018-07-25T13:56:17.930Z,6.08
2018-07-25T13:58:47.008Z,6.05
2018-07-25T14:01:16.446Z,6.90
2018-07-25T14:03:45.456Z,8.40
2018-07-25T14:06:14.709Z,7.12
2018-07-25T14:08:43.859Z,7.00
2018-07-25T14:11:13.522Z,7.70
2018-07-25T14:13:42.634Z,8.40
2018-07-25T14:16:12.068Z,8.98
2018-07-25T14:18:41.307Z,6.42
2018-07-25T14:21:10.967Z,7.45
2018-07-25T14:23:40.164Z,4.12
2018-07-25T14:26:09.402Z,6.30
2018-07-25T14:28:38.339Z,9.88
2018-07-25T14:31:07.659Z,4.85
2018-07-25T14:33:36.730Z,4.62
2018-07-25T14:36:05.907Z,5.00
2018-07-25T14:38:35.425Z,10.40
2018-07-25T14:41:04.526Z,7.05
2018-07-25T14:43:33.631Z,4.50
2018-07-25T14:46:02.569Z,4.62
2018-07-25T14:48:31.409Z,7.53
2018-07-25T14:51:00.842Z,5.33
2018-07-25T14:53:30.414Z,4.47
2018-07-25T14:55:59.453Z,8.05
2018-07-25T14:58:28.529Z,4.28
2018-07-25T15:00:58.052Z,4.00
2018-07-25T15:03:27.437Z,2.87
2018-07-25T15:05:56.419Z,3.30
2018-07-25T15:08:25.936Z,3.80
2018-07-25T15:10:55.017Z,29.95
2018-07-25T15:13:24.185Z,30.80
2018-07-25T15:15:53.642Z,40.75
2018-07-25T15:18:22.551Z,9.65
2018-07-25T15:20:51.592Z,15.75
2018-07-25T15:23:31.993Z,5.75
2018-07-25T15:26:01.296Z,5.50
2018-07-25T15:28:31.328Z,7.47
2018-07-25T15:31:00.810Z,5.83
2018-07-25T15:33:30.515Z,5.45
2018-07-25T15:35:59.470Z,5.95
2018-07-25T15:38:28.627Z,8.08
2018-07-25T15:40:57.801Z,8.15
2018-07-25T15:43:26.683Z,12.73
2018-07-25T15:45:56.256Z,6.03
2018-07-25T15:48:25.310Z,4.72
2018-07-25T15:50:54.461Z,7.28
2018-07-25T15:53:23.835Z,4.33
2018-07-25T15:55:53.312Z,4.87
2018-07-25T15:58:22.309Z,14.33
2018-07-25T16:00:52.135Z,6.00
2018-07-25T16:03:21.413Z,5.03
2018-07-25T16:05:50.214Z,5.25
2018-07-25T16:08:19.420Z,6.05
2018-07-25T16:10:48.513Z,8.53
2018-07-25T16:13:17.922Z,6.83
2018-07-25T16:15:47.361Z,8.35
2018-07-25T16:18:16.407Z,5.03
2018-07-25T16:20:45.493Z,4.83
2018-07-25T16:23:14.811Z,7.15
2018-07-25T16:25:43.686Z,5.45
2018-07-25T16:28:12.969Z,5.03
2018-07-25T16:30:42.288Z,6.80
2018-07-25T16:33:11.221Z,6.75
2018-07-25T16:35:40.369Z,7.55
2018-07-25T16:38:10.433Z,5.03
2018-07-25T16:40:39.298Z,6.40
2018-07-25T16:43:08.341Z,8.20
2018-07-25T16:45:37.734Z,8.98
2018-07-25T16:48:06.902Z,9.63
2018-07-25T16:50:36.007Z,9.73
2018-07-25T16:53:05.559Z,9.63
2018-07-25T16:55:34.295Z,10.68
2018-07-25T16:58:03.359Z,11.40
2018-07-25T17:00:33.112Z,11.75
2018-07-25T17:03:03.551Z,11.70
2018-07-25T17:05:33.623Z,12.80
2018-07-25T17:08:02.953Z,13.88
2018-07-25T17:10:32.562Z,15.58
2018-07-25T17:13:02.679Z,15.15
2018-07-25T17:15:35.316Z,15.83
2018-07-25T17:18:04.865Z,19.40
2018-07-25T17:20:33.791Z,17.23
2018-07-25T17:23:03.667Z,18.62
2018-07-25T17:25:32.915Z,20.27
2018-07-25T17:28:04.148Z,22.52
2018-07-25T17:33:33.231Z,21.80
2018-07-25T17:36:03.464Z,24.40
2018-07-25T17:38:34.675Z,25.52
2018-07-25T17:41:04.809Z,20.05
2018-07-25T17:43:36.677Z,20.32
2018-07-25T17:46:05.611Z,20.97
2018-07-25T17:48:34.627Z,17.65
2018-07-25T17:51:03.923Z,17.42
2018-07-25T17:53:33.302Z,16.67
2018-07-25T17:56:02.114Z,16.87
2018-07-25T17:58:30.957Z,14.83
2018-07-25T18:00:59.882Z,13.53
2018-07-25T18:03:28.739Z,13.75
2018-07-25T18:05:57.708Z,13.15
2018-07-25T18:08:26.668Z,12.35
2018-07-25T18:10:55.712Z,11.97
2018-07-25T18:13:30.582Z,12.05
2018-07-25T18:15:59.392Z,12.98
2018-07-25T18:18:27.272Z,11.10
2018-07-25T18:20:57.103Z,11.60
2018-07-25T18:23:25.962Z,11.85
2018-07-25T18:25:55.363Z,10.98
2018-07-25T18:28:24.659Z,11.83
2018-07-25T18:30:54.391Z,10.93
2018-07-25T18:33:23.372Z,14.03
2018-07-25T18:35:52.515Z,11.43
2018-07-25T18:38:21.447Z,13.80
2018-07-25T18:40:51.691Z,17.35
2018-07-25T18:43:20.916Z,10.32
2018-07-25T18:45:49.602Z,10.70
2018-07-25T18:48:19.666Z,10.32
2018-07-25T18:50:52.271Z,10.75
2018-07-25T18:56:01.671Z,13.95
2018-07-25T18:58:31.050Z,9.90
2018-07-25T19:00:59.923Z,13.22
2018-07-25T19:03:29.703Z,13.72
2018-07-25T19:05:59.155Z,21.60
2018-07-25T19:08:28.116Z,25.05
2018-07-25T19:10:57.028Z,21.37
2018-07-25T19:13:31.571Z,11.85
2018-07-25T19:16:00.546Z,17.32
2018-07-25T19:18:29.828Z,10.72
2018-07-25T19:20:59.367Z,12.58
2018-07-25T19:23:28.352Z,12.20
2018-07-25T19:25:57.632Z,9.20
2018-07-25T19:28:26.549Z,13.35
2018-07-25T19:30:55.437Z,9.88
2018-07-25T19:33:24.322Z,10.53
2018-07-25T19:35:54.164Z,11.43
2018-07-25T19:38:22.926Z,11.57
2018-07-25T19:40:52.726Z,10.03
2018-07-25T19:43:21.954Z,11.22
2018-07-25T19:45:51.151Z,12.37
2018-07-25T19:48:21.423Z,12.43
2018-07-25T19:50:50.261Z,19.67
2018-07-25T19:53:19.357Z,14.28
2018-07-25T19:55:48.485Z,12.15
2018-07-25T19:58:17.324Z,14.93
2018-07-25T20:00:46.160Z,12.98
2018-07-25T20:03:16.378Z,15.43
2018-07-25T20:05:45.206Z,15.08
2018-07-25T20:08:14.031Z,16.07
2018-07-25T20:10:43.203Z,13.58
2018-07-25T20:13:12.199Z,16.07
2018-07-25T20:15:47.111Z,17.62
2018-07-25T20:18:15.862Z,18.75
2018-07-25T20:20:44.839Z,14.63
2018-07-25T20:23:14.023Z,13.38
2018-07-25T20:25:43.042Z,27.20
2018-07-25T20:28:12.690Z,12.05
2018-07-25T20:30:41.852Z,13.43
2018-07-25T20:33:10.845Z,12.55
2018-07-25T20:35:39.836Z,12.23
2018-07-25T20:38:08.847Z,12.30
2018-07-25T20:40:37.828Z,14.83
2018-07-25T20:43:08.874Z,17.23
2018-07-25T20:45:38.684Z,20.55
2018-07-25T20:48:08.606Z,29.15
2018-07-25T20:50:38.536Z,38.60
2018-07-25T20:53:09.750Z,45.00
2018-07-25T20:55:39.274Z,31.10
2018-07-25T20:58:11.874Z,21.80
2018-07-25T21:00:42.236Z,19.80
2018-07-25T21:03:13.243Z,16.65
2018-07-25T21:05:44.436Z,15.20
2018-07-25T21:08:13.355Z,14.10
2018-07-25T21:10:42.481Z,13.60
2018-07-25T21:13:11.266Z,16.02
2018-07-25T21:15:40.035Z,15.35
2018-07-25T21:18:09.387Z,18.35
2018-07-25T21:20:38.448Z,14.93
2018-07-25T21:23:07.245Z,15.48
2018-07-25T21:25:36.324Z,19.20
2018-07-25T21:28:05.198Z,20.35
2018-07-25T21:30:34.638Z,22.17
2018-07-25T21:33:03.799Z,16.95
2018-07-25T21:35:32.533Z,15.23
2018-07-25T21:38:01.632Z,15.50
2018-07-25T21:40:30.573Z,18.60
2018-07-25T21:42:59.492Z,15.80
2018-07-25T21:45:28.474Z,15.43
2018-07-25T21:47:58.075Z,14.95
2018-07-25T21:50:27.283Z,15.30
2018-07-25T21:52:56.451Z,13.45
2018-07-25T21:55:26.126Z,14.43
2018-07-25T21:57:55.218Z,15.03
2018-07-25T22:00:24.179Z,16.70
2018-07-25T22:02:53.354Z,14.78
2018-07-25T22:05:23.286Z,15.23
2018-07-25T22:07:52.335Z,17.32
2018-07-25T22:10:21.502Z,14.38
2018-07-25T22:12:51.104Z,13.72
2018-07-25T22:15:20.126Z,12.90
2018-07-25T22:17:50.363Z,12.80
2018-07-25T22:20:19.439Z,12.40
2018-07-25T22:22:48.311Z,13.65
2018-07-25T22:25:17.650Z,14.10
2018-07-25T22:27:46.778Z,14.45
2018-07-25T22:30:15.918Z,15.00
2018-07-25T22:32:44.868Z,13.22
2018-07-25T22:35:13.825Z,14.03
2018-07-25T22:37:42.727Z,14.85
2018-07-25T22:40:11.638Z,12.28
2018-07-25T22:42:40.497Z,13.13
2018-07-25T22:45:09.762Z,12.30
2018-07-25T22:47:38.843Z,15.08
2018-07-25T22:50:07.588Z,17.87
2018-07-25T22:52:36.275Z,11.68
2018-07-25T22:55:05.903Z,11.33
2018-07-25T22:57:34.855Z,10.65
2018-07-25T23:00:05.139Z,15.55
2018-07-25T23:02:35.028Z,14.33
2018-07-25T23:05:04.203Z,10.82
2018-07-25T23:07:33.315Z,10.43
2018-07-25T23:10:02.826Z,10.68
2018-07-25T23:12:31.701Z,10.60
2018-07-25T23:15:00.720Z,9.90
2018-07-25T23:17:30.035Z,15.08
2018-07-25T23:19:58.994Z,9.20
2018-07-25T23:22:27.732Z,9.00
2018-07-25T23:24:56.912Z,10.25
2018-07-25T23:27:26.049Z,13.95
2018-07-25T23:29:54.871Z,13.53
2018-07-25T23:32:24.312Z,12.28
2018-07-25T23:34:53.711Z,10.18
2018-07-25T23:37:22.638Z,9.13
2018-07-25T23:39:51.738Z,9.65
2018-07-25T23:42:20.747Z,9.50
2018-07-25T23:44:49.854Z,10.03
2018-07-25T23:47:18.639Z,10.13
2018-07-25T23:49:47.543Z,10.68
2018-07-25T23:52:16.410Z,10.00
2018-07-25T23:54:45.501Z,9.80
2018-07-25T23:57:15.666Z,18.50
2018-07-25T23:59:44.848Z,13.95
